createdAt,value
2019-02-16T00:00:47.135Z,87.98
2019-02-16T00:02:56.468Z,88.06
2019-02-16T00:05:03.458Z,88.29
2019-02-16T00:07:10.354Z,88.30
2019-02-16T00:09:17.374Z,88.21
2019-02-16T00:11:25.913Z,88.53
2019-02-16T00:13:33.074Z,88.23
2019-02-16T00:15:40.422Z,87.98
2019-02-16T00:17:47.683Z,88.25
2019-02-16T00:19:54.353Z,87.87
2019-02-16T00:22:01.133Z,87.93
2019-02-16T00:24:08.605Z,87.62
2019-02-16T00:26:15.687Z,87.90
2019-02-16T00:28:23.405Z,87.94
2019-02-16T00:30:30.599Z,88.29
2019-02-16T00:32:37.431Z,88.44
2019-02-16T00:34:44.455Z,88.67
2019-02-16T00:36:51.400Z,88.63
2019-02-16T00:38:58.506Z,88.83
2019-02-16T00:41:05.815Z,88.83
2019-02-16T00:43:12.728Z,88.83
2019-02-16T00:45:19.619Z,89.04
2019-02-16T00:47:27.313Z,88.86
2019-02-16T00:49:34.834Z,89.26
2019-02-16T00:51:42.480Z,89.20
2019-02-16T00:53:49.710Z,89.21
2019-02-16T00:55:57.027Z,89.28
2019-02-16T00:58:04.370Z,89.25
2019-02-16T01:00:13.634Z,89.18
2019-02-16T01:02:21.299Z,89.32
2019-02-16T01:04:28.340Z,89.61
2019-02-16T01:06:35.621Z,89.56
2019-02-16T01:08:42.395Z,89.53
2019-02-16T01:10:49.262Z,89.72
2019-02-16T01:12:56.298Z,89.73
2019-02-16T01:15:03.704Z,89.87
2019-02-16T01:17:10.735Z,89.79
2019-02-16T01:19:17.842Z,89.66
2019-02-16T01:21:24.774Z,89.40
2019-02-16T01:23:32.046Z,89.51
2019-02-16T01:25:39.496Z,89.17
2019-02-16T01:27:46.660Z,89.57
2019-02-16T01:29:53.282Z,89.91
2019-02-16T01:32:00.256Z,89.89
2019-02-16T01:34:07.604Z,90.16
2019-02-16T01:36:14.444Z,89.83
2019-02-16T01:38:21.402Z,89.80
2019-02-16T01:40:30.083Z,89.63
2019-02-16T01:42:37.101Z,89.87
2019-02-16T01:44:43.969Z,89.94
2019-02-16T01:46:51.558Z,90.10
2019-02-16T01:48:59.018Z,90.34
2019-02-16T01:51:06.122Z,90.37
2019-02-16T01:53:13.111Z,90.28
2019-02-16T01:55:20.631Z,90.36
2019-02-16T01:57:27.796Z,90.57
2019-02-16T01:59:35.692Z,90.64
2019-02-16T02:01:43.283Z,90.67
2019-02-16T02:03:50.786Z,90.75
2019-02-16T02:05:58.334Z,90.73
2019-02-16T02:08:05.956Z,90.69
2019-02-16T02:10:13.150Z,90.75
2019-02-16T02:12:20.420Z,90.99
2019-02-16T02:14:27.535Z,90.99
2019-02-16T02:16:35.793Z,90.96
2019-02-16T02:18:43.228Z,90.80
2019-02-16T02:20:50.371Z,90.94
2019-02-16T02:22:57.484Z,90.97
2019-02-16T02:25:04.581Z,90.71
2019-02-16T02:27:12.198Z,90.85
2019-02-16T02:29:19.238Z,90.95
2019-02-16T02:31:26.975Z,91.05
2019-02-16T02:33:34.339Z,90.95
2019-02-16T02:35:41.862Z,91.02
2019-02-16T02:37:49.285Z,91.42
2019-02-16T02:39:56.432Z,91.70
2019-02-16T02:42:03.567Z,91.76
2019-02-16T02:44:10.491Z,91.58
2019-02-16T02:46:17.493Z,91.76
2019-02-16T02:48:24.650Z,90.97
2019-02-16T02:50:31.507Z,91.07
2019-02-16T02:52:39.236Z,91.12
2019-02-16T02:54:46.810Z,91.09
2019-02-16T02:56:54.023Z,91.37
2019-02-16T02:59:01.074Z,91.15
2019-02-16T03:01:08.172Z,91.18
2019-02-16T03:03:15.750Z,91.22
2019-02-16T03:05:22.729Z,91.50
2019-02-16T03:07:31.879Z,91.62
2019-02-16T03:09:38.839Z,91.86
2019-02-16T03:11:45.929Z,92.03
2019-02-16T03:13:53.218Z,91.75
2019-02-16T03:16:01.317Z,91.99
2019-02-16T03:18:08.598Z,91.93
2019-02-16T03:20:16.257Z,92.03
2019-02-16T03:22:24.309Z,91.58
2019-02-16T03:24:31.683Z,91.59
2019-02-16T03:26:44.611Z,91.96
2019-02-16T03:29:10.992Z,92.09
2019-02-16T03:31:25.113Z,92.10
2019-02-16T03:33:45.036Z,92.01
2019-02-16T03:36:20.993Z,91.87
2019-02-16T03:38:40.859Z,92.29
2019-02-16T03:40:50.600Z,92.30
2019-02-16T03:42:57.926Z,91.81
2019-02-16T03:45:07.115Z,91.99
2019-02-16T03:47:14.403Z,91.95
2019-02-16T03:49:21.871Z,91.90
2019-02-16T03:51:30.195Z,91.85
2019-02-16T03:53:37.763Z,92.18
2019-02-16T03:55:44.765Z,92.32
2019-02-16T03:57:52.354Z,92.22
2019-02-16T03:59:59.184Z,92.56
2019-02-16T04:02:06.863Z,92.71
2019-02-16T04:04:14.621Z,92.69
2019-02-16T04:06:22.032Z,92.30
2019-02-16T04:08:30.321Z,92.33
2019-02-16T04:10:37.468Z,92.41
2019-02-16T04:12:44.325Z,92.52
2019-02-16T04:14:51.602Z,92.49
2019-02-16T04:16:59.570Z,92.18
2019-02-16T04:19:06.643Z,92.00
2019-02-16T04:21:13.809Z,92.16
2019-02-16T04:23:21.256Z,92.21
2019-02-16T04:25:28.709Z,92.53
2019-02-16T04:27:35.589Z,92.67
2019-02-16T04:29:42.971Z,92.76
2019-02-16T04:31:49.929Z,92.49
2019-02-16T04:33:57.148Z,91.90
2019-02-16T04:36:04.069Z,91.97
2019-02-16T04:38:11.379Z,92.16
2019-02-16T04:40:18.832Z,92.29
2019-02-16T04:42:26.449Z,92.33
2019-02-16T04:44:33.496Z,92.39
2019-02-16T04:46:41.824Z,92.32
2019-02-16T04:48:48.875Z,92.17
2019-02-16T04:50:56.603Z,92.04
2019-02-16T04:53:04.060Z,92.23
2019-02-16T04:55:11.725Z,92.32
2019-02-16T04:57:19.283Z,92.63
2019-02-16T04:59:26.602Z,92.84
2019-02-16T05:01:33.790Z,92.96
2019-02-16T05:03:41.088Z,92.70
2019-02-16T05:05:49.528Z,92.72
2019-02-16T05:07:56.370Z,92.70
2019-02-16T05:10:05.090Z,92.18
2019-02-16T05:12:12.616Z,92.25
2019-02-16T05:14:19.611Z,92.14
2019-02-16T05:16:26.833Z,91.97
2019-02-16T05:18:34.177Z,92.23
2019-02-16T05:20:41.512Z,92.55
2019-02-16T05:22:48.616Z,92.41
2019-02-16T05:24:55.586Z,92.93
2019-02-16T05:27:03.007Z,93.05
2019-02-16T05:29:10.491Z,92.69
2019-02-16T05:31:17.693Z,91.74
2019-02-16T05:33:25.220Z,91.91
2019-02-16T05:35:32.278Z,92.07
2019-02-16T05:37:39.993Z,92.12
2019-02-16T05:39:47.008Z,92.08
2019-02-16T05:41:54.478Z,91.94
2019-02-16T05:44:01.886Z,92.25
2019-02-16T05:46:09.118Z,92.34
2019-02-16T05:48:16.591Z,92.23
2019-02-16T05:50:23.188Z,92.25
2019-02-16T05:52:30.378Z,91.86
2019-02-16T05:54:38.213Z,91.66
2019-02-16T05:56:46.948Z,91.88
2019-02-16T05:58:54.129Z,92.12
2019-02-16T06:01:00.972Z,92.37
2019-02-16T06:03:08.106Z,92.19
2019-02-16T06:05:17.485Z,92.24
2019-02-16T06:07:24.363Z,92.50
2019-02-16T06:09:31.318Z,92.58
2019-02-16T06:11:38.475Z,92.29
2019-02-16T06:13:45.669Z,92.13
2019-02-16T06:15:52.563Z,91.96
2019-02-16T06:17:59.503Z,91.81
2019-02-16T06:20:08.953Z,92.22
2019-02-16T06:22:16.051Z,92.10
2019-02-16T06:24:23.243Z,92.33
2019-02-16T06:26:29.926Z,92.00
2019-02-16T06:28:37.125Z,92.19
2019-02-16T06:30:44.633Z,92.15
2019-02-16T06:32:53.143Z,91.97
2019-02-16T06:35:10.913Z,92.38
2019-02-16T06:37:25.010Z,91.95
2019-02-16T06:39:32.561Z,92.12
2019-02-16T06:41:40.124Z,91.78
2019-02-16T06:43:46.836Z,91.95
2019-02-16T06:45:53.820Z,91.73
2019-02-16T06:48:00.794Z,91.97
2019-02-16T06:50:09.424Z,92.11
2019-02-16T06:52:17.504Z,91.88
2019-02-16T06:54:24.263Z,92.10
2019-02-16T06:56:34.304Z,91.63
2019-02-16T06:58:41.413Z,91.59
2019-02-16T07:00:48.650Z,91.06
2019-02-16T07:02:55.932Z,91.89
2019-02-16T07:05:02.742Z,91.71
2019-02-16T07:07:11.228Z,92.41
2019-02-16T07:09:19.050Z,91.77
2019-02-16T07:11:27.939Z,92.21
2019-02-16T07:13:34.877Z,90.77
2019-02-16T07:15:41.805Z,90.75
2019-02-16T07:17:53.211Z,90.50
2019-02-16T07:20:00.372Z,90.95
2019-02-16T07:22:08.058Z,91.52
2019-02-16T07:24:14.824Z,90.68
2019-02-16T07:26:22.046Z,90.24
2019-02-16T07:28:28.911Z,90.80
2019-02-16T07:30:35.796Z,89.35
2019-02-16T07:32:42.648Z,89.70
2019-02-16T07:34:49.543Z,89.38
2019-02-16T07:36:56.863Z,87.75
2019-02-16T07:39:05.312Z,88.92
2019-02-16T07:41:12.812Z,89.19
2019-02-16T07:43:36.592Z,87.47
2019-02-16T07:45:45.360Z,86.95
2019-02-16T07:48:13.062Z,87.72
2019-02-16T07:50:21.626Z,87.51
2019-02-16T07:52:33.483Z,87.74
2019-02-16T07:54:40.878Z,88.18
2019-02-16T07:56:58.896Z,87.14
2019-02-16T07:59:16.976Z,87.85
2019-02-16T08:01:30.047Z,87.50
2019-02-16T08:03:38.765Z,88.18
2019-02-16T08:06:00.283Z,88.73
2019-02-16T08:08:19.242Z,88.91
2019-02-16T08:10:33.305Z,88.46
2019-02-16T08:12:41.837Z,87.91
2019-02-16T08:14:48.762Z,87.20
2019-02-16T08:17:00.636Z,87.11
2019-02-16T08:19:28.555Z,86.75
2019-02-16T08:21:39.108Z,86.30
2019-02-16T08:24:05.647Z,86.28
2019-02-16T08:26:17.285Z,85.75
2019-02-16T08:28:26.871Z,85.47
2019-02-16T08:30:38.409Z,86.44
2019-02-16T08:32:53.442Z,85.04
2019-02-16T08:35:18.310Z,85.10
2019-02-16T08:37:26.896Z,84.63
2019-02-16T08:39:35.633Z,85.29
2019-02-16T08:41:50.215Z,85.20
2019-02-16T08:44:03.176Z,83.90
2019-02-16T08:46:31.337Z,83.98
2019-02-16T08:48:56.271Z,83.82
2019-02-16T08:51:04.586Z,84.43
2019-02-16T08:53:20.383Z,84.39
2019-02-16T08:55:35.445Z,84.28
2019-02-16T08:57:46.918Z,83.72
2019-02-16T09:00:02.531Z,84.45
2019-02-16T09:02:11.432Z,84.08
2019-02-16T09:04:26.385Z,82.61
2019-02-16T09:06:33.066Z,83.22
2019-02-16T09:08:41.785Z,82.99
2019-02-16T09:11:02.876Z,83.75
2019-02-16T09:13:18.067Z,82.10
2019-02-16T09:15:27.328Z,81.62
2019-02-16T09:17:40.835Z,81.30
2019-02-16T09:19:47.284Z,81.14
2019-02-16T09:21:54.780Z,81.77
2019-02-16T09:24:21.206Z,81.75
2019-02-16T09:26:36.265Z,81.68
2019-02-16T09:28:48.116Z,83.10
2019-02-16T09:31:15.024Z,84.62
2019-02-16T09:33:26.686Z,81.67
2019-02-16T09:35:38.685Z,82.63
2019-02-16T09:37:56.474Z,81.93
2019-02-16T09:40:03.359Z,81.92
2019-02-16T09:42:28.592Z,82.50
2019-02-16T09:44:44.174Z,81.03
2019-02-16T09:46:59.844Z,82.84
2019-02-16T09:49:17.593Z,80.64
2019-02-16T09:51:35.935Z,78.09
2019-02-16T09:54:08.190Z,81.61
2019-02-16T09:56:22.473Z,78.76
2019-02-16T09:58:34.114Z,79.79
2019-02-16T10:00:50.014Z,79.12
2019-02-16T10:03:15.444Z,78.61
2019-02-16T10:05:33.981Z,79.01
2019-02-16T10:07:48.625Z,79.29
2019-02-16T10:09:56.945Z,78.00
2019-02-16T10:12:13.154Z,78.45
2019-02-16T10:14:28.264Z,78.28
2019-02-16T10:16:39.786Z,76.26
2019-02-16T10:18:52.279Z,75.93
2019-02-16T10:21:00.824Z,76.47
2019-02-16T10:23:08.842Z,75.15
2019-02-16T10:25:24.276Z,76.53
2019-02-16T10:27:52.474Z,74.98
2019-02-16T10:30:11.414Z,76.48
2019-02-16T10:32:30.565Z,75.91
2019-02-16T10:34:53.917Z,73.91
2019-02-16T10:37:15.042Z,73.52
2019-02-16T10:39:26.836Z,74.01
2019-02-16T10:41:38.527Z,75.45
2019-02-16T10:44:00.793Z,74.89
2019-02-16T10:46:26.586Z,72.79
2019-02-16T10:48:42.746Z,73.76
2019-02-16T10:50:54.246Z,73.21
2019-02-16T10:53:15.088Z,72.02
2019-02-16T10:55:40.356Z,72.21
2019-02-16T10:57:52.053Z,71.96
2019-02-16T11:00:01.007Z,72.24
2019-02-16T11:02:17.060Z,72.94
2019-02-16T11:04:38.007Z,71.94
2019-02-16T11:06:57.610Z,71.28
2019-02-16T11:09:16.363Z,69.58
2019-02-16T11:11:31.533Z,70.27
2019-02-16T11:13:44.474Z,69.34
2019-02-16T11:15:56.365Z,68.52
2019-02-16T11:18:11.124Z,70.45
2019-02-16T11:20:35.881Z,67.84
2019-02-16T11:23:01.113Z,66.89
2019-02-16T11:25:17.325Z,65.97
2019-02-16T11:27:35.127Z,65.81
2019-02-16T11:29:49.372Z,63.62
2019-02-16T11:32:01.493Z,63.66
2019-02-16T11:34:13.785Z,64.17
2019-02-16T11:36:27.015Z,63.72
2019-02-16T11:38:33.792Z,63.39
2019-02-16T11:40:48.199Z,62.19
2019-02-16T11:43:00.135Z,62.07
2019-02-16T11:45:27.565Z,62.67
2019-02-16T11:47:54.224Z,61.92
2019-02-16T11:50:05.500Z,61.16
2019-02-16T11:52:33.894Z,61.66
2019-02-16T11:54:45.657Z,61.31
2019-02-16T11:56:52.693Z,60.93
2019-02-16T11:59:13.783Z,61.20
2019-02-16T12:01:32.917Z,60.52
2019-02-16T12:03:58.954Z,61.72
2019-02-16T12:06:23.054Z,59.32
2019-02-16T12:08:31.464Z,59.30
2019-02-16T12:10:39.954Z,59.27
2019-02-16T12:12:54.120Z,58.68
2019-02-16T12:15:02.717Z,59.32
2019-02-16T12:17:11.485Z,58.41
2019-02-16T12:19:22.915Z,58.51
2019-02-16T12:21:57.849Z,59.04
2019-02-16T12:24:10.053Z,59.10
2019-02-16T12:26:18.504Z,58.90
2019-02-16T12:28:44.825Z,58.70
2019-02-16T12:30:56.215Z,59.18
2019-02-16T12:33:05.303Z,59.36
2019-02-16T12:35:13.863Z,59.55
2019-02-16T12:37:22.526Z,58.37
2019-02-16T12:39:34.517Z,58.79
2019-02-16T12:41:46.175Z,58.44
2019-02-16T12:43:54.540Z,58.60
2019-02-16T12:46:03.124Z,58.67
2019-02-16T12:48:20.634Z,59.10
2019-02-16T12:50:35.434Z,58.76
2019-02-16T12:52:50.165Z,58.32
2019-02-16T12:55:02.477Z,57.89
2019-02-16T12:57:26.845Z,56.95
2019-02-16T12:59:38.155Z,57.02
2019-02-16T13:01:44.800Z,57.67
2019-02-16T13:04:11.706Z,57.41
2019-02-16T13:06:32.345Z,57.56
2019-02-16T13:08:43.631Z,56.95
2019-02-16T13:10:52.325Z,56.55
2019-02-16T13:13:04.174Z,56.84
2019-02-16T13:15:12.771Z,57.06
2019-02-16T13:17:39.899Z,57.02
2019-02-16T13:19:54.667Z,57.55
2019-02-16T13:22:09.934Z,57.37
2019-02-16T13:24:18.445Z,57.96
2019-02-16T13:26:27.277Z,57.92
2019-02-16T13:28:52.754Z,57.72
2019-02-16T13:31:17.674Z,58.02
2019-02-16T13:33:38.735Z,58.05
2019-02-16T13:35:58.501Z,58.42
2019-02-16T13:38:17.104Z,58.84
2019-02-16T13:40:38.624Z,59.23
2019-02-16T13:42:45.504Z,59.20
2019-02-16T13:44:54.114Z,59.32
2019-02-16T13:47:12.071Z,59.16
2019-02-16T13:49:23.741Z,58.82
2019-02-16T13:51:39.004Z,58.63
2019-02-16T13:53:47.563Z,58.96
2019-02-16T13:55:56.133Z,58.87
2019-02-16T13:58:11.122Z,59.13
2019-02-16T14:00:21.243Z,59.04
2019-02-16T14:02:32.833Z,58.72
2019-02-16T14:04:47.593Z,58.93
2019-02-16T14:07:04.112Z,59.33
2019-02-16T14:09:19.673Z,58.65
2019-02-16T14:11:28.998Z,59.30
2019-02-16T14:13:46.328Z,59.42
2019-02-16T14:15:57.798Z,59.55
2019-02-16T14:18:05.081Z,59.46
2019-02-16T14:20:12.483Z,59.85
2019-02-16T14:22:19.713Z,59.46
2019-02-16T14:24:40.473Z,59.73
2019-02-16T14:26:47.313Z,60.02
2019-02-16T14:28:54.502Z,60.18
2019-02-16T14:31:01.472Z,60.30
2019-02-16T14:33:09.404Z,60.40
2019-02-16T14:35:18.107Z,60.49
2019-02-16T14:37:28.190Z,60.34
2019-02-16T14:39:35.446Z,60.68
2019-02-16T14:41:42.473Z,60.78
2019-02-16T14:43:49.517Z,60.90
2019-02-16T14:45:56.654Z,60.55
2019-02-16T14:48:03.678Z,60.84
2019-02-16T14:50:11.865Z,61.10
2019-02-16T14:52:20.451Z,60.99
2019-02-16T14:54:28.954Z,61.07
2019-02-16T14:56:36.748Z,61.35
2019-02-16T14:58:43.794Z,61.57
2019-02-16T15:00:52.106Z,61.96
2019-02-16T15:02:59.189Z,62.31
2019-02-16T15:05:07.160Z,62.53
2019-02-16T15:07:14.496Z,62.71
2019-02-16T15:09:21.324Z,63.05
2019-02-16T15:11:28.033Z,63.73
2019-02-16T15:13:34.992Z,64.08
2019-02-16T15:15:42.554Z,64.19
2019-02-16T15:17:50.436Z,64.43
2019-02-16T15:19:57.952Z,64.72
2019-02-16T15:22:05.044Z,65.10
2019-02-16T15:24:11.937Z,65.37
2019-02-16T15:26:28.358Z,65.75
2019-02-16T15:28:30.614Z,66.11
2019-02-16T15:30:37.849Z,66.55
2019-02-16T15:32:45.245Z,66.81
2019-02-16T15:34:52.649Z,67.27
2019-02-16T15:37:00.070Z,67.60
2019-02-16T15:39:08.680Z,67.90
2019-02-16T15:41:16.428Z,68.24
2019-02-16T15:43:23.897Z,68.53
2019-02-16T15:45:32.507Z,68.84
2019-02-16T15:47:40.276Z,69.18
2019-02-16T15:49:47.510Z,69.62
2019-02-16T15:51:54.413Z,69.96
2019-02-16T15:54:01.958Z,70.34
2019-02-16T15:56:10.791Z,70.72
2019-02-16T15:58:18.241Z,71.25
2019-02-16T16:00:27.626Z,71.49
2019-02-16T16:02:34.498Z,71.90
2019-02-16T16:04:41.951Z,72.20
2019-02-16T16:06:49.093Z,72.36
2019-02-16T16:08:59.163Z,72.65
2019-02-16T16:11:11.977Z,72.85
2019-02-16T16:13:39.371Z,73.33
2019-02-16T16:15:50.928Z,73.59
2019-02-16T16:17:59.599Z,73.38
2019-02-16T16:22:36.421Z,73.67
2019-02-16T16:25:01.621Z,74.11
2019-02-16T16:27:25.732Z,74.21
2019-02-16T16:29:40.200Z,74.56
2019-02-16T16:31:55.351Z,74.65
2019-02-16T16:34:03.910Z,74.72
2019-02-16T16:36:21.330Z,74.95
2019-02-16T16:38:29.940Z,75.07
2019-02-16T16:40:43.161Z,75.24
2019-02-16T16:43:01.805Z,75.38
2019-02-16T16:45:18.950Z,75.56
2019-02-16T16:47:33.251Z,75.94
2019-02-16T16:49:50.883Z,76.14
2019-02-16T16:52:18.034Z,76.45
2019-02-16T16:54:34.647Z,76.76
2019-02-16T16:56:44.277Z,77.04
2019-02-16T16:58:53.022Z,77.32
2019-02-16T17:01:19.833Z,77.39
2019-02-16T17:03:26.523Z,77.52
2019-02-16T17:05:44.235Z,77.57
2019-02-16T17:08:03.583Z,77.60
2019-02-16T17:10:30.963Z,77.78
2019-02-16T17:12:42.472Z,77.82
2019-02-16T17:15:10.923Z,77.83
2019-02-16T17:17:22.204Z,77.72
2019-02-16T17:19:30.753Z,77.96
2019-02-16T17:21:54.664Z,78.23
2019-02-16T17:24:13.814Z,78.43
2019-02-16T17:26:20.783Z,78.39
2019-02-16T17:28:45.996Z,78.35
2019-02-16T17:30:54.973Z,78.41
2019-02-16T17:33:03.793Z,78.24
2019-02-16T17:35:19.263Z,78.13
2019-02-16T17:37:27.710Z,78.21
2019-02-16T17:40:00.327Z,77.90
2019-02-16T17:42:08.904Z,77.93
2019-02-16T17:44:35.863Z,77.92
2019-02-16T17:46:47.795Z,77.92
2019-02-16T17:49:12.890Z,78.07
2019-02-16T17:51:39.424Z,78.03
2019-02-16T17:53:46.294Z,77.90
2019-02-16T17:56:13.753Z,77.58
2019-02-16T17:58:22.711Z,77.18
2019-02-16T18:00:32.903Z,76.73
2019-02-16T18:02:41.772Z,76.69
2019-02-16T18:04:56.421Z,76.67
2019-02-16T18:07:05.055Z,76.48
2019-02-16T18:09:25.713Z,76.45
2019-02-16T18:11:40.664Z,76.48
2019-02-16T18:13:52.953Z,76.51
2019-02-16T18:16:02.037Z,76.44
2019-02-16T18:18:27.635Z,76.56
2019-02-16T18:20:36.675Z,76.64
2019-02-16T18:22:45.917Z,76.75
2019-02-16T18:25:11.602Z,76.88
2019-02-16T18:27:20.924Z,76.79
2019-02-16T18:29:46.033Z,76.80
2019-02-16T18:32:11.554Z,76.96
2019-02-16T18:34:26.311Z,77.18
2019-02-16T18:36:35.074Z,77.25
2019-02-16T18:38:43.824Z,77.19
2019-02-16T18:40:52.506Z,77.18
2019-02-16T18:43:04.671Z,77.23
2019-02-16T18:45:23.113Z,77.13
2019-02-16T18:47:41.354Z,77.21
2019-02-16T18:49:56.909Z,77.41
2019-02-16T18:52:10.559Z,77.46
2019-02-16T18:54:23.662Z,77.60
2019-02-16T18:56:31.156Z,77.77
2019-02-16T18:58:47.767Z,77.75
2019-02-16T19:01:06.106Z,77.75
2019-02-16T19:03:21.596Z,77.76
2019-02-16T19:05:46.842Z,77.54
2019-02-16T19:08:14.575Z,77.63
2019-02-16T19:10:26.751Z,77.73
2019-02-16T19:12:52.483Z,77.77
2019-02-16T19:15:08.776Z,77.61
2019-02-16T19:17:28.244Z,77.49
2019-02-16T19:19:53.544Z,77.31
2019-02-16T19:22:00.842Z,77.19
2019-02-16T19:24:15.052Z,77.12
2019-02-16T19:26:29.449Z,77.18
2019-02-16T19:28:52.016Z,77.32
2019-02-16T19:31:17.369Z,77.45
2019-02-16T19:33:37.611Z,77.47
2019-02-16T19:35:50.994Z,77.74
2019-02-16T19:38:15.821Z,77.99
2019-02-16T19:40:34.474Z,77.89
2019-02-16T19:42:49.614Z,77.93
2019-02-16T19:45:17.047Z,78.13
2019-02-16T19:47:32.447Z,78.41
2019-02-16T19:49:40.672Z,78.35
2019-02-16T19:51:53.672Z,78.54
2019-02-16T19:54:04.441Z,78.68
2019-02-16T19:56:14.954Z,79.00
2019-02-16T19:58:28.437Z,79.31
2019-02-16T20:00:48.565Z,79.29
2019-02-16T20:03:04.077Z,79.37
2019-02-16T20:05:21.318Z,79.37
2019-02-16T20:07:42.272Z,79.50
2019-02-16T20:09:59.406Z,79.56
2019-02-16T20:12:19.887Z,79.40
2019-02-16T20:14:29.844Z,79.42
2019-02-16T20:16:39.360Z,79.60
2019-02-16T20:18:59.334Z,79.49
2019-02-16T20:21:11.380Z,79.58
2019-02-16T20:23:21.707Z,79.51
2019-02-16T20:25:49.234Z,79.44
2019-02-16T20:28:09.716Z,79.52
2019-02-16T20:30:28.075Z,79.61
2019-02-16T20:32:37.252Z,79.72
2019-02-16T20:34:48.012Z,79.69
2019-02-16T20:36:57.126Z,79.68
2019-02-16T20:39:11.087Z,79.80
2019-02-16T20:41:38.134Z,80.08
2019-02-16T20:43:53.069Z,80.12
2019-02-16T20:46:05.910Z,80.37
2019-02-16T20:48:19.233Z,80.61
2019-02-16T20:50:38.039Z,80.76
2019-02-16T20:52:47.003Z,80.99
2019-02-16T20:55:08.440Z,80.89
2019-02-16T20:57:32.654Z,81.09
2019-02-16T20:59:51.023Z,81.14
2019-02-16T21:02:03.133Z,81.08
2019-02-16T21:04:18.336Z,80.89
2019-02-16T21:06:27.174Z,81.05
2019-02-16T21:08:34.236Z,81.04
2019-02-16T21:10:43.333Z,81.04
2019-02-16T21:12:51.904Z,81.00
2019-02-16T21:15:08.260Z,81.06
2019-02-16T21:17:31.734Z,81.09
2019-02-16T21:19:44.135Z,81.31
2019-02-16T21:22:07.247Z,81.40
2019-02-16T21:24:22.684Z,81.57
2019-02-16T21:26:47.414Z,81.72
2019-02-16T21:29:08.254Z,82.09
2019-02-16T21:31:29.633Z,82.24
2019-02-16T21:33:48.092Z,82.50
2019-02-16T21:36:02.694Z,82.71
2019-02-16T21:38:29.393Z,82.82
2019-02-16T21:40:47.154Z,82.93
2019-02-16T21:42:58.833Z,82.90
2019-02-16T21:45:08.291Z,82.99
2019-02-16T21:47:35.106Z,83.04
2019-02-16T21:50:00.414Z,83.20
2019-02-16T21:52:12.924Z,83.39
2019-02-16T21:54:22.986Z,83.50
2019-02-16T21:56:44.175Z,83.62
2019-02-16T21:58:53.211Z,83.58
2019-02-16T22:01:08.251Z,83.55
2019-02-16T22:03:20.944Z,83.53
2019-02-16T22:05:32.878Z,83.75
2019-02-16T22:07:41.613Z,83.96
2019-02-16T22:09:53.180Z,84.13
2019-02-16T22:12:08.762Z,84.27
2019-02-16T22:14:16.704Z,84.28
2019-02-16T22:16:23.643Z,84.33
2019-02-16T22:18:30.514Z,84.37
2019-02-16T22:20:37.502Z,84.25
2019-02-16T22:22:44.973Z,84.26
2019-02-16T22:24:52.264Z,84.28
2019-02-16T22:26:59.243Z,84.29
2019-02-16T22:29:07.594Z,84.30
2019-02-16T22:31:15.023Z,84.30
2019-02-16T22:33:22.720Z,84.22
2019-02-16T22:35:30.005Z,84.19
2019-02-16T22:37:37.003Z,84.12
2019-02-16T22:39:43.954Z,84.13
2019-02-16T22:41:51.531Z,84.02
2019-02-16T22:43:58.413Z,83.92
2019-02-16T22:46:05.382Z,83.85
2019-02-16T22:48:12.790Z,83.66
2019-02-16T22:50:19.926Z,83.64
2019-02-16T22:52:26.790Z,83.58
2019-02-16T22:54:34.953Z,83.45
2019-02-16T22:56:41.751Z,83.37
2019-02-16T22:58:49.493Z,83.33
2019-02-16T23:00:56.939Z,83.19
2019-02-16T23:03:05.985Z,83.08
2019-02-16T23:05:13.004Z,82.98
2019-02-16T23:07:20.463Z,82.98
2019-02-16T23:09:28.677Z,82.81
2019-02-16T23:11:35.903Z,82.56
2019-02-16T23:13:42.881Z,82.23
2019-02-16T23:15:50.415Z,82.19
2019-02-16T23:17:57.603Z,82.26
2019-02-16T23:20:05.241Z,82.20
2019-02-16T23:22:12.311Z,82.16
2019-02-16T23:24:19.348Z,82.17
2019-02-16T23:26:27.381Z,82.10
2019-02-16T23:28:38.914Z,82.04
2019-02-16T23:30:43.406Z,81.99
2019-02-16T23:32:50.086Z,81.96
2019-02-16T23:34:57.276Z,81.95
2019-02-16T23:37:04.320Z,81.98
2019-02-16T23:39:12.690Z,82.15
2019-02-16T23:41:19.702Z,82.40
2019-02-16T23:43:34.313Z,82.59
2019-02-16T23:46:01.693Z,82.56
2019-02-16T23:48:09.587Z,82.69
2019-02-16T23:50:17.082Z,82.80
2019-02-16T23:52:25.165Z,82.94
2019-02-16T23:54:32.871Z,83.02
2019-02-16T23:56:40.373Z,83.12
2019-02-16T23:58:49.523Z,83.18
